createdAt,value
2018-04-24T00:00:23.319Z,5.28
2018-04-24T00:00:57.312Z,6.10
2018-04-24T00:01:31.295Z,5.40
2018-04-24T00:02:05.282Z,5.53
2018-04-24T00:02:39.313Z,5.97
2018-04-24T00:03:13.197Z,6.53
2018-04-24T00:03:47.056Z,6.35
2018-04-24T00:04:20.911Z,6.30
2018-04-24T00:04:54.825Z,6.30
2018-04-24T00:05:28.920Z,6.30
2018-04-24T00:06:02.785Z,6.03
2018-04-24T00:06:36.638Z,5.95
2018-04-24T00:07:10.509Z,6.18
2018-04-24T00:07:44.444Z,5.90
2018-04-24T00:08:18.335Z,5.93
2018-04-24T00:08:52.196Z,5.87
2018-04-24T00:09:26.055Z,6.47
2018-04-24T00:09:59.924Z,5.82
2018-04-24T00:10:33.779Z,7.22
2018-04-24T00:11:07.656Z,6.15
2018-04-24T00:11:41.504Z,6.15
2018-04-24T00:12:15.379Z,5.80
2018-04-24T00:12:49.239Z,6.37
2018-04-24T00:13:23.196Z,6.60
2018-04-24T00:13:57.078Z,6.15
2018-04-24T00:14:30.948Z,6.37
2018-04-24T00:15:04.856Z,6.15
2018-04-24T00:15:38.715Z,5.78
2018-04-24T00:16:12.601Z,6.32
2018-04-24T00:16:46.479Z,6.00
2018-04-24T00:17:20.327Z,5.78
2018-04-24T00:17:54.180Z,6.10
2018-04-24T00:18:28.168Z,6.25
2018-04-24T00:19:02.029Z,6.32
2018-04-24T00:19:35.903Z,6.35
2018-04-24T00:20:09.791Z,6.07
2018-04-24T00:20:43.732Z,6.43
2018-04-24T00:21:17.625Z,7.15
2018-04-24T00:21:51.534Z,6.55
2018-04-24T00:22:25.384Z,5.82
2018-04-24T00:22:59.354Z,6.05
2018-04-24T00:23:33.216Z,6.10
2018-04-24T00:24:07.072Z,6.25
2018-04-24T00:24:40.946Z,7.18
2018-04-24T00:25:14.816Z,6.45
2018-04-24T00:25:48.691Z,5.47
2018-04-24T00:26:22.563Z,6.25
2018-04-24T00:26:56.410Z,6.20
2018-04-24T00:27:30.271Z,6.30
2018-04-24T00:28:04.141Z,5.85
2018-04-24T00:28:38.012Z,6.00
2018-04-24T00:29:11.864Z,6.10
2018-04-24T00:29:45.743Z,5.82
2018-04-24T00:30:19.635Z,5.68
2018-04-24T00:30:53.512Z,5.95
2018-04-24T00:31:27.371Z,6.03
2018-04-24T00:32:01.267Z,6.28
2018-04-24T00:32:35.132Z,6.90
2018-04-24T00:33:08.991Z,6.40
2018-04-24T00:33:42.842Z,6.05
2018-04-24T00:34:17.012Z,6.20
2018-04-24T00:34:50.892Z,6.00
2018-04-24T00:35:24.773Z,6.43
2018-04-24T00:35:58.628Z,6.15
2018-04-24T00:36:32.476Z,6.90
2018-04-24T00:37:06.358Z,6.03
2018-04-24T00:37:40.273Z,6.25
2018-04-24T00:38:14.134Z,5.85
2018-04-24T00:38:48.048Z,6.12
2018-04-24T00:39:21.914Z,6.07
2018-04-24T00:39:55.779Z,5.50
2018-04-24T00:40:29.754Z,6.10
2018-04-24T00:41:03.611Z,5.68
2018-04-24T00:41:37.486Z,6.28
2018-04-24T00:42:11.572Z,5.90
2018-04-24T00:42:45.444Z,7.30
2018-04-24T00:43:19.310Z,5.70
2018-04-24T00:43:53.168Z,6.47
2018-04-24T00:44:27.127Z,5.90
2018-04-24T00:45:01.006Z,6.60
2018-04-24T00:45:34.926Z,5.70
2018-04-24T00:46:08.925Z,5.78
2018-04-24T00:46:42.777Z,5.75
2018-04-24T00:47:16.644Z,5.45
2018-04-24T00:47:50.522Z,5.93
2018-04-24T00:48:24.603Z,6.75
2018-04-24T00:48:58.583Z,6.45
2018-04-24T00:49:32.462Z,6.22
2018-04-24T00:50:06.327Z,6.40
2018-04-24T00:50:40.254Z,6.35
2018-04-24T00:51:14.109Z,6.40
2018-04-24T00:51:48.083Z,6.65
2018-04-24T00:52:21.946Z,6.50
2018-04-24T00:52:55.815Z,6.45
2018-04-24T00:53:35.574Z,6.65
2018-04-24T00:54:09.506Z,6.60
2018-04-24T00:54:43.366Z,6.25
2018-04-24T00:55:17.224Z,6.43
2018-04-24T00:55:51.283Z,6.28
2018-04-24T00:56:25.136Z,6.43
2018-04-24T00:56:58.997Z,6.05
2018-04-24T00:57:32.888Z,5.90
2018-04-24T00:58:06.749Z,6.30
2018-04-24T00:58:40.960Z,6.00
2018-04-24T00:59:14.964Z,6.50
2018-04-24T00:59:48.941Z,5.62
2018-04-24T01:00:22.794Z,6.03
2018-04-24T01:00:56.663Z,7.60
2018-04-24T01:01:30.520Z,6.47
2018-04-24T01:02:04.383Z,6.18
2018-04-24T01:02:38.232Z,6.40
2018-04-24T01:03:12.112Z,6.95
2018-04-24T01:03:45.990Z,6.10
2018-04-24T01:04:19.847Z,5.82
2018-04-24T01:04:53.716Z,5.87
2018-04-24T01:05:27.588Z,6.18
2018-04-24T01:06:01.579Z,6.03
2018-04-24T01:06:35.461Z,5.35
2018-04-24T01:07:09.342Z,5.80
2018-04-24T01:07:43.190Z,5.78
2018-04-24T01:08:17.176Z,6.25
2018-04-24T01:08:51.431Z,6.37
2018-04-24T01:09:25.284Z,6.75
2018-04-24T01:09:59.143Z,6.75
2018-04-24T01:10:33.066Z,6.37
2018-04-24T01:11:06.969Z,6.68
2018-04-24T01:11:40.868Z,6.47
2018-04-24T01:12:14.725Z,6.35
2018-04-24T01:12:48.590Z,6.55
2018-04-24T01:13:22.475Z,6.32
2018-04-24T01:13:56.446Z,6.70
2018-04-24T01:14:30.309Z,6.82
2018-04-24T01:15:04.180Z,7.07
2018-04-24T01:15:38.048Z,6.20
2018-04-24T01:16:11.914Z,5.82
2018-04-24T01:16:45.772Z,7.07
2018-04-24T01:17:19.636Z,6.35
2018-04-24T01:17:53.527Z,6.85
2018-04-24T01:18:27.396Z,6.80
2018-04-24T01:19:01.392Z,6.43
2018-04-24T01:19:35.447Z,7.15
2018-04-24T01:20:09.502Z,6.70
2018-04-24T01:20:43.364Z,6.60
2018-04-24T01:21:17.241Z,6.22
2018-04-24T01:21:51.115Z,6.95
2018-04-24T01:22:25.075Z,6.53
2018-04-24T01:22:59.728Z,6.85
2018-04-24T01:23:33.583Z,6.82
2018-04-24T01:24:07.455Z,6.68
2018-04-24T01:24:41.327Z,6.95
2018-04-24T01:25:15.185Z,7.65
2018-04-24T01:25:49.054Z,7.10
2018-04-24T01:26:22.918Z,7.43
2018-04-24T01:26:56.779Z,6.47
2018-04-24T01:27:30.628Z,6.55
2018-04-24T01:28:04.475Z,7.05
2018-04-24T01:28:38.325Z,6.57
2018-04-24T01:29:12.219Z,7.93
2018-04-24T01:29:46.072Z,7.20
2018-04-24T01:30:20.017Z,6.95
2018-04-24T01:30:53.872Z,6.78
2018-04-24T01:31:27.747Z,7.32
2018-04-24T01:32:01.604Z,6.68
2018-04-24T01:32:35.454Z,7.18
2018-04-24T01:33:09.328Z,7.35
2018-04-24T01:33:43.198Z,6.82
2018-04-24T01:34:17.122Z,6.25
2018-04-24T01:34:51.208Z,7.05
2018-04-24T01:35:25.134Z,6.75
2018-04-24T01:35:59.075Z,6.78
2018-04-24T01:36:32.952Z,6.40
2018-04-24T01:37:06.990Z,6.28
2018-04-24T01:37:40.853Z,6.65
2018-04-24T01:38:14.699Z,6.75
2018-04-24T01:38:48.556Z,6.00
2018-04-24T01:39:22.411Z,7.45
2018-04-24T01:39:56.262Z,6.60
2018-04-24T01:40:30.107Z,6.97
2018-04-24T01:41:03.955Z,6.90
2018-04-24T01:41:38.795Z,6.70
2018-04-24T01:42:12.852Z,6.65
2018-04-24T01:42:46.718Z,6.57
2018-04-24T01:43:20.595Z,6.28
2018-04-24T01:43:54.455Z,6.78
2018-04-24T01:44:28.347Z,6.82
2018-04-24T01:45:02.215Z,6.32
2018-04-24T01:45:36.088Z,6.15
2018-04-24T01:46:09.958Z,6.30
2018-04-24T01:46:43.859Z,6.60
2018-04-24T01:47:17.708Z,6.50
2018-04-24T01:47:51.568Z,6.75
2018-04-24T01:48:25.549Z,6.70
2018-04-24T01:48:59.417Z,6.85
2018-04-24T01:49:33.308Z,6.10
2018-04-24T01:50:07.165Z,6.60
2018-04-24T01:50:41.049Z,6.78
2018-04-24T01:51:14.921Z,7.10
2018-04-24T01:51:48.800Z,6.43
2018-04-24T01:52:22.663Z,6.68
2018-04-24T01:52:56.561Z,6.65
2018-04-24T01:53:30.421Z,6.72
2018-04-24T01:54:04.273Z,6.90
2018-04-24T01:54:38.144Z,7.30
2018-04-24T01:55:12.013Z,7.03
2018-04-24T01:55:45.868Z,6.28
2018-04-24T01:56:19.747Z,6.72
2018-04-24T01:56:53.619Z,7.40
2018-04-24T01:57:27.471Z,7.60
2018-04-24T01:58:01.399Z,6.60
2018-04-24T01:58:35.282Z,7.10
2018-04-24T01:59:09.136Z,6.60
2018-04-24T01:59:43.083Z,6.10
2018-04-24T02:00:16.939Z,7.20
2018-04-24T02:00:50.797Z,7.15
2018-04-24T02:01:24.645Z,7.10
2018-04-24T02:01:58.519Z,6.10
2018-04-24T02:02:32.370Z,6.90
2018-04-24T02:03:06.247Z,6.90
2018-04-24T02:03:40.206Z,6.30
2018-04-24T02:04:14.285Z,6.50
2018-04-24T02:04:48.142Z,6.60
2018-04-24T02:05:22.002Z,6.95
2018-04-24T02:05:55.932Z,7.03
2018-04-24T02:06:29.785Z,7.00
2018-04-24T02:07:03.677Z,6.57
2018-04-24T02:07:37.539Z,6.85
2018-04-24T02:08:11.433Z,6.87
2018-04-24T02:08:45.303Z,6.12
2018-04-24T02:09:19.171Z,6.85
2018-04-24T02:09:53.019Z,6.07
2018-04-24T02:10:26.905Z,5.85
2018-04-24T02:11:00.798Z,6.20
2018-04-24T02:11:34.648Z,6.30
2018-04-24T02:12:08.516Z,6.50
2018-04-24T02:12:42.368Z,5.97
2018-04-24T02:13:16.262Z,6.45
2018-04-24T02:13:50.176Z,6.30
2018-04-24T02:14:24.048Z,7.10
2018-04-24T02:14:57.920Z,7.80
2018-04-24T02:15:31.798Z,7.32
2018-04-24T02:16:05.678Z,7.72
2018-04-24T02:16:39.547Z,7.90
2018-04-24T02:17:13.431Z,6.87
2018-04-24T02:17:47.316Z,7.12
2018-04-24T02:18:21.225Z,7.65
2018-04-24T02:18:55.095Z,7.28
2018-04-24T02:19:29.023Z,6.80
2018-04-24T02:20:02.880Z,7.10
2018-04-24T02:20:36.798Z,6.55
2018-04-24T02:21:10.647Z,6.85
2018-04-24T02:21:44.484Z,7.60
2018-04-24T02:22:18.583Z,7.50
2018-04-24T02:22:52.430Z,7.07
2018-04-24T02:23:26.290Z,8.23
2018-04-24T02:24:00.160Z,7.75
2018-04-24T02:24:34.021Z,7.32
2018-04-24T02:25:08.184Z,6.85
2018-04-24T02:25:42.068Z,6.78
2018-04-24T02:26:15.952Z,7.15
2018-04-24T02:26:50.055Z,7.35
2018-04-24T02:27:23.958Z,6.80
2018-04-24T02:27:57.805Z,7.28
2018-04-24T02:28:31.846Z,7.50
2018-04-24T02:29:05.743Z,6.45
2018-04-24T02:29:39.664Z,6.87
2018-04-24T02:30:13.531Z,7.30
2018-04-24T02:30:47.411Z,6.95
2018-04-24T02:31:21.264Z,6.47
2018-04-24T02:31:55.320Z,6.40
2018-04-24T02:32:29.215Z,7.12
2018-04-24T02:33:03.071Z,6.40
2018-04-24T02:33:36.931Z,8.80
2018-04-24T02:34:10.802Z,7.35
2018-04-24T02:34:44.687Z,6.68
2018-04-24T02:35:18.537Z,7.10
2018-04-24T02:35:52.403Z,7.18
2018-04-24T02:36:26.384Z,7.78
2018-04-24T02:37:00.250Z,7.20
2018-04-24T02:37:34.156Z,6.65
2018-04-24T02:38:08.015Z,6.90
2018-04-24T02:38:41.963Z,7.60
2018-04-24T02:39:15.855Z,6.50
2018-04-24T02:39:49.739Z,6.82
2018-04-24T02:40:23.653Z,7.60
2018-04-24T02:40:57.645Z,6.72
2018-04-24T02:41:31.512Z,6.62
2018-04-24T02:42:05.363Z,6.85
2018-04-24T02:42:39.242Z,7.00
2018-04-24T02:43:13.119Z,6.90
2018-04-24T02:43:47.000Z,6.62
2018-04-24T02:44:20.879Z,6.57
2018-04-24T02:44:54.742Z,6.93
2018-04-24T02:45:28.705Z,6.80
2018-04-24T02:46:02.554Z,6.12
2018-04-24T02:46:36.439Z,5.75
2018-04-24T02:47:10.288Z,6.65
2018-04-24T02:47:44.171Z,6.62
2018-04-24T02:48:18.016Z,7.10
2018-04-24T02:48:51.874Z,7.70
2018-04-24T02:49:25.739Z,6.55
2018-04-24T02:49:59.826Z,7.28
2018-04-24T02:50:33.680Z,6.80
2018-04-24T02:51:07.545Z,7.20
2018-04-24T02:51:41.406Z,7.05
2018-04-24T02:52:15.258Z,7.82
2018-04-24T02:52:49.124Z,6.97
2018-04-24T02:53:22.971Z,6.30
2018-04-24T02:53:56.853Z,7.50
2018-04-24T02:54:30.740Z,6.72
2018-04-24T02:55:04.602Z,7.22
2018-04-24T02:55:38.512Z,7.15
2018-04-24T02:56:12.367Z,7.68
2018-04-24T02:56:46.219Z,6.65
2018-04-24T02:57:20.075Z,6.32
2018-04-24T02:57:53.941Z,6.97
2018-04-24T02:58:27.840Z,6.97
2018-04-24T02:59:01.696Z,6.90
2018-04-24T02:59:35.575Z,6.55
2018-04-24T03:00:09.576Z,6.65
2018-04-24T03:00:43.435Z,6.95
2018-04-24T03:01:17.412Z,6.75
2018-04-24T03:01:51.262Z,7.05
2018-04-24T03:02:25.131Z,6.55
2018-04-24T03:02:59.163Z,6.43
2018-04-24T03:03:33.019Z,7.22
2018-04-24T03:04:06.868Z,6.37
2018-04-24T03:04:40.723Z,7.05
2018-04-24T03:05:14.615Z,7.10
2018-04-24T03:05:48.475Z,6.45
2018-04-24T03:06:22.901Z,6.70
2018-04-24T03:06:56.756Z,6.50
2018-04-24T03:07:30.610Z,7.25
2018-04-24T03:08:04.470Z,7.35
2018-04-24T03:08:38.334Z,6.60
2018-04-24T03:09:12.197Z,7.12
2018-04-24T03:09:46.100Z,6.85
2018-04-24T03:10:19.971Z,7.70
2018-04-24T03:10:53.840Z,6.70
2018-04-24T03:11:27.698Z,6.78
2018-04-24T03:12:01.561Z,7.10
2018-04-24T03:12:35.418Z,7.55
2018-04-24T03:13:09.299Z,7.85
2018-04-24T03:13:43.152Z,6.30
2018-04-24T03:14:17.035Z,6.70
2018-04-24T03:14:50.897Z,6.87
2018-04-24T03:15:24.786Z,7.15
2018-04-24T03:15:58.646Z,7.10
2018-04-24T03:16:32.491Z,7.43
2018-04-24T03:17:06.349Z,7.65
2018-04-24T03:17:40.353Z,7.90
2018-04-24T03:18:14.230Z,7.15
2018-04-24T03:18:48.220Z,7.28
2018-04-24T03:19:22.090Z,7.82
2018-04-24T03:19:56.055Z,7.75
2018-04-24T03:20:29.931Z,7.43
2018-04-24T03:21:03.900Z,7.60
2018-04-24T03:21:37.797Z,7.22
2018-04-24T03:22:11.708Z,7.53
2018-04-24T03:22:45.575Z,7.65
2018-04-24T03:23:19.482Z,7.50
2018-04-24T03:23:53.335Z,7.90
2018-04-24T03:24:27.209Z,6.82
2018-04-24T03:25:01.061Z,6.85
2018-04-24T03:25:34.913Z,6.65
2018-04-24T03:26:09.176Z,6.68
2018-04-24T03:26:43.037Z,7.05
2018-04-24T03:27:16.891Z,7.65
2018-04-24T03:27:50.746Z,7.35
2018-04-24T03:28:24.609Z,7.68
2018-04-24T03:28:58.460Z,7.75
2018-04-24T03:29:32.307Z,7.37
2018-04-24T03:30:06.883Z,7.60
2018-04-24T03:30:40.912Z,7.97
2018-04-24T03:31:14.837Z,8.15
2018-04-24T03:31:48.703Z,7.70
2018-04-24T03:32:22.634Z,7.95
2018-04-24T03:32:56.480Z,8.00
2018-04-24T03:33:30.361Z,7.85
2018-04-24T03:34:04.236Z,7.45
2018-04-24T03:34:38.081Z,7.40
2018-04-24T03:35:11.937Z,7.82
2018-04-24T03:35:45.792Z,7.65
2018-04-24T03:36:19.704Z,7.60
2018-04-24T03:36:53.555Z,8.40
2018-04-24T03:37:27.419Z,8.27
2018-04-24T03:38:01.436Z,8.25
2018-04-24T03:38:35.332Z,10.05
2018-04-24T03:39:09.176Z,7.85
2018-04-24T03:39:43.022Z,7.85
2018-04-24T03:40:16.886Z,7.75
2018-04-24T03:40:51.055Z,8.60
2018-04-24T03:41:24.936Z,7.75
2018-04-24T03:41:58.827Z,8.65
2018-04-24T03:42:32.743Z,8.57
2018-04-24T03:43:06.611Z,8.93
2018-04-24T03:43:40.610Z,8.38
2018-04-24T03:44:14.467Z,8.80
2018-04-24T03:44:48.327Z,7.97
2018-04-24T03:45:22.175Z,8.02
2018-04-24T03:45:56.030Z,7.65
2018-04-24T03:46:29.909Z,7.97
2018-04-24T03:47:03.802Z,9.13
2018-04-24T03:47:37.694Z,8.18
2018-04-24T03:48:11.563Z,8.98
2018-04-24T03:48:45.467Z,8.25
2018-04-24T03:49:19.337Z,7.65
2018-04-24T03:49:53.201Z,9.20
2018-04-24T03:50:27.078Z,8.38
2018-04-24T03:51:00.981Z,8.27
2018-04-24T03:51:34.864Z,7.72
2018-04-24T03:52:08.725Z,8.57
2018-04-24T03:52:42.707Z,8.07
2018-04-24T03:53:16.565Z,8.40
2018-04-24T03:53:50.753Z,8.48
2018-04-24T03:54:24.625Z,7.68
2018-04-24T03:54:58.520Z,7.47
2018-04-24T03:55:32.733Z,8.02
2018-04-24T03:56:06.632Z,8.57
2018-04-24T03:56:40.534Z,8.10
2018-04-24T03:57:14.460Z,7.07
2018-04-24T03:57:48.286Z,8.40
2018-04-24T03:58:22.188Z,7.53
2018-04-24T03:58:56.071Z,7.47
2018-04-24T03:59:29.931Z,6.80
2018-04-24T04:00:03.805Z,8.13
2018-04-24T04:00:37.733Z,8.57
2018-04-24T04:01:11.617Z,8.15
2018-04-24T04:01:45.591Z,8.82
2018-04-24T04:02:19.501Z,8.80
2018-04-24T04:02:53.400Z,8.15
2018-04-24T04:03:27.279Z,8.13
2018-04-24T04:04:01.191Z,7.95
2018-04-24T04:04:35.172Z,7.57
2018-04-24T04:05:09.033Z,8.30
2018-04-24T04:05:42.892Z,7.50
2018-04-24T04:06:16.763Z,7.62
2018-04-24T04:06:50.635Z,7.87
2018-04-24T04:07:24.491Z,7.47
2018-04-24T04:07:58.552Z,7.43
2018-04-24T04:08:32.745Z,7.15
2018-04-24T04:09:06.784Z,6.65
2018-04-24T04:09:40.873Z,8.48
2018-04-24T04:10:14.778Z,7.80
2018-04-24T04:10:48.839Z,7.53
2018-04-24T04:11:22.706Z,7.15
2018-04-24T04:11:56.573Z,7.87
2018-04-24T04:12:30.440Z,7.03
2018-04-24T04:13:04.292Z,8.00
2018-04-24T04:13:38.548Z,7.97
2018-04-24T04:14:12.419Z,7.55
2018-04-24T04:14:46.291Z,7.35
2018-04-24T04:15:20.179Z,7.75
2018-04-24T04:15:54.098Z,7.45
2018-04-24T04:16:27.960Z,8.02
2018-04-24T04:17:07.515Z,7.50
2018-04-24T04:17:47.255Z,7.93
2018-04-24T04:18:27.195Z,8.40
2018-04-24T04:19:06.984Z,6.95
2018-04-24T04:19:46.684Z,7.32
2018-04-24T04:20:26.488Z,7.20
2018-04-24T04:21:06.065Z,7.50
2018-04-24T04:21:45.623Z,8.02
2018-04-24T04:22:25.321Z,7.32
2018-04-24T04:23:04.880Z,7.40
2018-04-24T04:23:44.848Z,7.93
2018-04-24T04:24:23.865Z,8.23
2018-04-24T04:24:57.879Z,8.93
2018-04-24T04:25:31.736Z,7.53
2018-04-24T04:26:05.755Z,7.10
2018-04-24T04:26:39.671Z,8.00
2018-04-24T04:27:13.545Z,8.35
2018-04-24T04:27:47.400Z,7.95
2018-04-24T04:28:21.251Z,7.37
2018-04-24T04:28:55.156Z,7.80
2018-04-24T04:29:29.092Z,7.15
2018-04-24T04:30:02.984Z,7.18
2018-04-24T04:30:36.865Z,7.57
2018-04-24T04:31:10.708Z,7.90
2018-04-24T04:31:44.624Z,7.93
2018-04-24T04:32:18.500Z,7.32
2018-04-24T04:32:52.379Z,8.70
2018-04-24T04:33:26.244Z,7.43
2018-04-24T04:34:00.115Z,8.10
2018-04-24T04:34:34.292Z,7.85
2018-04-24T04:35:08.173Z,8.52
2018-04-24T04:35:42.051Z,8.30
2018-04-24T04:36:15.944Z,8.68
2018-04-24T04:36:49.803Z,8.18
2018-04-24T04:37:23.696Z,8.60
2018-04-24T04:37:57.656Z,8.93
2018-04-24T04:38:31.526Z,7.93
2018-04-24T04:39:05.446Z,7.72
2018-04-24T04:39:39.342Z,8.00
2018-04-24T04:40:13.356Z,8.70
2018-04-24T04:40:47.220Z,9.63
2018-04-24T04:41:21.162Z,8.30
2018-04-24T04:41:55.037Z,9.05
2018-04-24T04:42:28.921Z,9.48
2018-04-24T04:43:03.024Z,9.93
2018-04-24T04:43:37.576Z,10.02
2018-04-24T04:44:11.436Z,8.93
2018-04-24T04:44:45.302Z,9.70
2018-04-24T04:45:19.253Z,9.88
2018-04-24T04:45:53.113Z,9.27
2018-04-24T04:46:26.985Z,8.77
2018-04-24T04:47:00.895Z,10.50
2018-04-24T04:47:34.859Z,9.35
2018-04-24T04:48:08.768Z,9.40
2018-04-24T04:48:42.696Z,9.50
2018-04-24T04:49:16.583Z,9.75
2018-04-24T04:49:50.461Z,9.73
2018-04-24T04:50:24.344Z,9.48
2018-04-24T04:50:58.203Z,8.55
2018-04-24T04:51:32.283Z,8.13
2018-04-24T04:52:06.144Z,9.90
2018-04-24T04:52:40.191Z,9.45
2018-04-24T04:53:14.110Z,9.27
2018-04-24T04:53:48.161Z,8.63
2018-04-24T04:54:22.022Z,9.20
2018-04-24T04:54:55.884Z,9.20
2018-04-24T04:55:29.762Z,9.80
2018-04-24T04:56:03.694Z,9.23
2018-04-24T04:56:37.536Z,8.85
2018-04-24T04:57:11.449Z,9.25
2018-04-24T04:57:45.328Z,10.43
2018-04-24T04:58:19.191Z,9.07
2018-04-24T04:58:53.041Z,9.52
2018-04-24T04:59:26.911Z,9.48
2018-04-24T05:00:00.782Z,10.00
2018-04-24T05:00:34.655Z,9.07
2018-04-24T05:01:09.618Z,10.35
2018-04-24T05:01:43.607Z,9.35
2018-04-24T05:02:17.465Z,9.50
2018-04-24T05:02:51.331Z,9.68
2018-04-24T05:03:25.204Z,9.45
2018-04-24T05:03:59.193Z,9.80
2018-04-24T05:04:33.062Z,9.20
2018-04-24T05:05:06.998Z,10.18
2018-04-24T05:05:40.904Z,9.55
2018-04-24T05:06:14.875Z,9.57
2018-04-24T05:06:48.956Z,9.90
2018-04-24T05:07:22.983Z,9.63
2018-04-24T05:07:56.879Z,10.60
2018-04-24T05:08:30.740Z,11.10
2018-04-24T05:09:04.879Z,10.13
2018-04-24T05:09:38.915Z,9.70
2018-04-24T05:10:12.786Z,10.48
2018-04-24T05:10:46.685Z,9.25
2018-04-24T05:11:21.156Z,10.02
2018-04-24T05:11:55.061Z,9.68
2018-04-24T05:12:29.007Z,9.98
2018-04-24T05:13:02.963Z,10.27
2018-04-24T05:13:37.011Z,9.00
2018-04-24T05:14:10.879Z,10.30
2018-04-24T05:14:44.743Z,9.70
2018-04-24T05:15:18.666Z,9.52
2018-04-24T05:15:52.543Z,9.70
2018-04-24T05:16:26.825Z,10.65
2018-04-24T05:17:00.699Z,10.45
2018-04-24T05:17:34.564Z,10.60
2018-04-24T05:18:08.423Z,10.15
2018-04-24T05:18:42.424Z,9.40
2018-04-24T05:19:16.539Z,9.82
2018-04-24T05:19:51.155Z,9.73
2018-04-24T05:20:25.413Z,9.50
2018-04-24T05:21:00.418Z,9.15
2018-04-24T05:21:34.779Z,9.23
2018-04-24T05:22:08.700Z,10.05
2018-04-24T05:22:43.154Z,10.00
2018-04-24T05:23:17.034Z,10.70
2018-04-24T05:23:51.028Z,9.95
2018-04-24T05:24:24.991Z,10.65
2018-04-24T05:24:58.853Z,10.38
2018-04-24T05:25:32.744Z,9.23
2018-04-24T05:26:06.627Z,10.00
2018-04-24T05:26:40.530Z,9.80
2018-04-24T05:27:14.479Z,10.77
2018-04-24T05:27:48.634Z,10.23
2018-04-24T05:28:22.735Z,10.10
2018-04-24T05:28:56.616Z,11.23
2018-04-24T05:29:30.620Z,10.05
2018-04-24T05:30:04.546Z,10.63
2018-04-24T05:30:38.533Z,10.20
2018-04-24T05:31:12.666Z,10.02
2018-04-24T05:31:46.659Z,10.48
2018-04-24T05:32:20.616Z,10.30
2018-04-24T05:32:54.551Z,11.48
2018-04-24T05:33:28.450Z,11.35
2018-04-24T05:34:02.327Z,10.60
2018-04-24T05:34:36.193Z,10.85
2018-04-24T05:35:10.399Z,11.07
2018-04-24T05:35:45.093Z,10.50
2018-04-24T05:36:19.175Z,10.98
2018-04-24T05:36:53.300Z,11.40
2018-04-24T05:37:27.171Z,10.20
2018-04-24T05:38:01.060Z,10.60
2018-04-24T05:38:35.129Z,10.40
2018-04-24T05:39:09.038Z,10.75
2018-04-24T05:39:42.909Z,11.60
2018-04-24T05:40:16.796Z,10.63
2018-04-24T05:40:50.804Z,11.32
2018-04-24T05:41:24.698Z,10.05
2018-04-24T05:41:58.645Z,10.18
2018-04-24T05:42:32.567Z,11.10
2018-04-24T05:43:06.453Z,10.93
2018-04-24T05:43:40.492Z,11.25
2018-04-24T05:44:14.414Z,11.70
2018-04-24T05:44:48.283Z,10.50
2018-04-24T05:45:22.859Z,11.52
2018-04-24T05:45:56.743Z,10.98
2018-04-24T05:46:30.612Z,10.15
2018-04-24T05:47:04.661Z,12.70
2018-04-24T05:47:38.564Z,11.70
2018-04-24T05:48:12.533Z,9.80
2018-04-24T05:48:46.403Z,12.63
2018-04-24T05:49:20.373Z,11.60
2018-04-24T05:49:54.240Z,10.45
2018-04-24T05:50:28.335Z,10.90
2018-04-24T05:51:02.230Z,11.48
2018-04-24T05:51:36.228Z,10.45
2018-04-24T05:52:10.096Z,10.88
2018-04-24T05:52:43.981Z,10.88
2018-04-24T05:53:18.044Z,9.73
2018-04-24T05:53:51.918Z,10.45
2018-04-24T05:54:25.803Z,9.70
2018-04-24T05:54:59.719Z,10.90
2018-04-24T05:55:33.614Z,10.48
2018-04-24T05:56:07.503Z,11.57
2018-04-24T05:56:41.552Z,10.10
2018-04-24T05:57:15.693Z,10.95
2018-04-24T05:57:49.590Z,11.10
2018-04-24T05:58:23.490Z,11.12
2018-04-24T05:58:57.398Z,11.20
2018-04-24T05:59:31.269Z,11.85
2018-04-24T06:00:05.680Z,10.25
2018-04-24T06:00:39.591Z,11.43
2018-04-24T06:01:13.705Z,11.00
2018-04-24T06:01:47.714Z,11.30
2018-04-24T06:02:21.633Z,11.48
2018-04-24T06:02:55.518Z,10.20
2018-04-24T06:03:30.179Z,10.80
2018-04-24T06:04:04.113Z,11.48
2018-04-24T06:04:37.979Z,11.45
2018-04-24T06:05:11.856Z,10.90
2018-04-24T06:05:45.719Z,11.02
2018-04-24T06:06:19.792Z,10.50
2018-04-24T06:06:53.675Z,11.60
2018-04-24T06:07:27.652Z,11.25
2018-04-24T06:08:01.517Z,10.98
2018-04-24T06:08:35.486Z,11.52
2018-04-24T06:09:09.347Z,11.12
2018-04-24T06:09:43.441Z,10.55
2018-04-24T06:10:17.341Z,11.07
2018-04-24T06:10:51.549Z,9.70
2018-04-24T06:11:25.573Z,9.80
2018-04-24T06:11:59.606Z,10.43
2018-04-24T06:12:33.545Z,11.52
2018-04-24T06:13:07.436Z,11.30
2018-04-24T06:13:41.701Z,10.75
2018-04-24T06:14:18.574Z,11.80
2018-04-24T06:14:52.596Z,11.50
2018-04-24T06:15:26.956Z,11.10
2018-04-24T06:16:00.815Z,13.00
2018-04-24T06:16:34.696Z,12.20
2018-04-24T06:17:08.759Z,11.27
2018-04-24T06:17:42.625Z,10.93
2018-04-24T06:18:16.513Z,10.63
2018-04-24T06:18:50.502Z,10.55
2018-04-24T06:19:24.901Z,10.65
2018-04-24T06:19:58.760Z,12.68
2018-04-24T06:20:32.877Z,11.05
2018-04-24T06:21:06.766Z,11.27
2018-04-24T06:21:40.689Z,11.90
2018-04-24T06:22:14.868Z,11.45
2018-04-24T06:22:48.732Z,11.02
2018-04-24T06:23:22.628Z,11.40
2018-04-24T06:23:56.502Z,11.82
2018-04-24T06:24:30.372Z,11.05
2018-04-24T06:25:05.646Z,12.20
2018-04-24T06:25:39.516Z,11.20
2018-04-24T06:26:13.386Z,11.48
2018-04-24T06:26:47.247Z,11.48
2018-04-24T06:27:21.183Z,11.10
2018-04-24T06:27:55.053Z,11.32
2018-04-24T06:28:28.941Z,11.48
2018-04-24T06:29:02.817Z,11.52
2018-04-24T06:29:36.910Z,10.90
2018-04-24T06:30:10.880Z,10.75
2018-04-24T06:30:44.747Z,11.85
2018-04-24T06:31:18.668Z,10.68
2018-04-24T06:31:52.622Z,11.35
2018-04-24T06:32:26.543Z,10.50
2018-04-24T06:33:00.468Z,11.18
2018-04-24T06:33:34.419Z,11.43
2018-04-24T06:34:08.303Z,11.43
2018-04-24T06:34:42.180Z,10.88
2018-04-24T06:35:16.726Z,10.43
2018-04-24T06:35:50.718Z,10.88
2018-04-24T06:36:24.628Z,10.13
2018-04-24T06:36:58.503Z,9.35
2018-04-24T06:37:32.378Z,10.48
2018-04-24T06:38:06.297Z,11.15
2018-04-24T06:38:40.228Z,11.18
2018-04-24T06:39:14.173Z,9.70
2018-04-24T06:39:48.064Z,11.23
2018-04-24T06:40:21.967Z,11.95
2018-04-24T06:40:55.858Z,10.98
2018-04-24T06:41:29.783Z,9.70
2018-04-24T06:42:03.660Z,10.15
2018-04-24T06:42:37.865Z,10.70
2018-04-24T06:43:11.723Z,9.40
2018-04-24T06:43:45.594Z,11.55
2018-04-24T06:44:19.460Z,9.88
2018-04-24T06:44:53.336Z,11.05
2018-04-24T06:45:27.208Z,9.68
2018-04-24T06:46:01.065Z,9.77
2018-04-24T06:46:35.042Z,10.55
2018-04-24T06:47:08.992Z,10.00
2018-04-24T06:47:43.491Z,10.27
2018-04-24T06:48:18.109Z,10.20
2018-04-24T06:48:51.977Z,10.07
2018-04-24T06:49:25.977Z,10.30
2018-04-24T06:49:59.853Z,10.75
2018-04-24T06:50:34.863Z,10.30
2018-04-24T06:51:08.862Z,11.10
2018-04-24T06:51:42.906Z,9.75
2018-04-24T06:52:18.266Z,9.88
2018-04-24T06:52:52.289Z,10.15
2018-04-24T06:53:26.195Z,10.20
2018-04-24T06:54:04.177Z,9.77
2018-04-24T06:54:43.418Z,10.55
2018-04-24T06:55:19.558Z,10.00
2018-04-24T06:55:53.897Z,10.73
2018-04-24T06:56:27.839Z,10.38
2018-04-24T06:57:01.792Z,10.43
2018-04-24T06:57:36.022Z,9.25
2018-04-24T07:11:05.198Z,9.18
2018-04-24T07:11:39.064Z,11.23
2018-04-24T07:12:12.937Z,10.73
2018-04-24T07:12:46.909Z,11.27
2018-04-24T07:13:20.935Z,12.02
2018-04-24T07:13:54.788Z,10.05
2018-04-24T07:14:29.533Z,12.82
2018-04-24T07:15:03.412Z,11.38
2018-04-24T07:15:37.270Z,11.73
2018-04-24T07:16:11.148Z,11.75
2018-04-24T07:16:45.040Z,11.65
2018-04-24T07:17:18.995Z,12.30
2018-04-24T07:17:52.888Z,12.35
2018-04-24T07:18:26.909Z,14.48
2018-04-24T07:19:00.796Z,11.88
2018-04-24T07:19:34.661Z,12.35
2018-04-24T07:20:08.531Z,12.60
2018-04-24T07:20:42.430Z,13.40
2018-04-24T07:21:16.352Z,13.55
2018-04-24T07:21:50.234Z,12.70
2018-04-24T07:22:24.091Z,12.88
2018-04-24T07:22:57.995Z,12.80
2018-04-24T07:23:31.860Z,13.60
2018-04-24T07:24:05.839Z,12.37
2018-04-24T07:24:39.929Z,13.15
2018-04-24T07:25:13.799Z,13.20
2018-04-24T07:25:47.666Z,12.65
2018-04-24T07:26:21.559Z,13.93
2018-04-24T07:26:55.428Z,14.70
2018-04-24T07:27:29.313Z,14.73
2018-04-24T07:28:03.184Z,14.40
2018-04-24T07:28:37.223Z,14.45
2018-04-24T07:29:11.108Z,13.82
2018-04-24T07:29:44.988Z,14.93
2018-04-24T07:30:18.910Z,14.32
2018-04-24T07:30:52.773Z,15.60
2018-04-24T07:31:26.684Z,14.77
2018-04-24T07:32:00.571Z,15.20
2018-04-24T07:32:34.431Z,15.15
2018-04-24T07:33:08.577Z,14.05
2018-04-24T07:33:42.432Z,15.18
2018-04-24T07:34:16.474Z,15.57
2018-04-24T07:34:50.496Z,15.00
2018-04-24T07:35:28.529Z,16.65
2018-04-24T07:36:02.463Z,15.75
2018-04-24T07:36:36.484Z,14.60
2018-04-24T07:37:12.371Z,15.45
2018-04-24T07:37:48.432Z,15.30
2018-04-24T07:38:24.343Z,15.23
2018-04-24T07:39:00.917Z,15.05
2018-04-24T07:39:37.216Z,15.70
2018-04-24T07:40:13.187Z,14.32
2018-04-24T07:40:48.737Z,14.70
2018-04-24T07:41:22.834Z,15.50
2018-04-24T07:41:57.047Z,15.57
2018-04-24T07:42:34.464Z,16.20